sensor_id;sensor_type;location;lat;lon;timestamp;P1;durP1;ratioP1;P2;durP2;ratioP2
39448;SDS011;25151;45.566;9.382;2024-01-27T00:01:08;9.75;;;8.65;;
39448;SDS011;25151;45.566;9.382;2024-01-27T00:03:35;9.10;;;8.20;;
39448;SDS011;25151;45.566;9.382;2024-01-27T00:06:02;10.73;;;8.75;;
39448;SDS011;25151;45.566;9.382;2024-01-27T00:08:29;11.75;;;9.55;;
39448;SDS011;25151;45.566;9.382;2024-01-27T00:10:57;10.07;;;9.07;;
39448;SDS011;25151;45.566;9.382;2024-01-27T00:13:24;10.38;;;8.93;;
39448;SDS011;25151;45.566;9.382;2024-01-27T00:15:51;11.30;;;9.52;;
39448;SDS011;25151;45.566;9.382;2024-01-27T00:18:20;9.82;;;8.48;;
39448;SDS011;25151;45.566;9.382;2024-01-27T00:20:47;10.20;;;9.13;;
39448;SDS011;25151;45.566;9.382;2024-01-27T00:23:14;9.68;;;8.68;;
39448;SDS011;25151;45.566;9.382;2024-01-27T00:25:41;11.25;;;10.05;;
39448;SDS011;25151;45.566;9.382;2024-01-27T00:28:08;10.05;;;8.77;;
39448;SDS011;25151;45.566;9.382;2024-01-27T00:30:35;10.85;;;9.07;;
39448;SDS011;25151;45.566;9.382;2024-01-27T00:33:02;10.60;;;9.10;;
39448;SDS011;25151;45.566;9.382;2024-01-27T00:35:29;10.20;;;8.98;;
39448;SDS011;25151;45.566;9.382;2024-01-27T00:37:57;11.30;;;9.57;;
39448;SDS011;25151;45.566;9.382;2024-01-27T00:40:24;11.45;;;9.55;;
39448;SDS011;25151;45.566;9.382;2024-01-27T00:42:51;10.82;;;9.73;;
39448;SDS011;25151;45.566;9.382;2024-01-27T00:45:19;10.52;;;9.23;;
39448;SDS011;25151;45.566;9.382;2024-01-27T00:47:49;12.35;;;10.20;;
39448;SDS011;25151;45.566;9.382;2024-01-27T00:50:16;10.65;;;9.50;;
39448;SDS011;25151;45.566;9.382;2024-01-27T00:52:43;11.32;;;9.82;;
39448;SDS011;25151;45.566;9.382;2024-01-27T00:55:10;10.88;;;9.75;;
39448;SDS011;25151;45.566;9.382;2024-01-27T00:57:37;10.65;;;9.48;;
39448;SDS011;25151;45.566;9.382;2024-01-27T01:00:07;11.07;;;9.90;;
39448;SDS011;25151;45.566;9.382;2024-01-27T01:02:35;11.57;;;10.13;;
39448;SDS011;25151;45.566;9.382;2024-01-27T01:05:03;12.38;;;11.05;;
39448;SDS011;25151;45.566;9.382;2024-01-27T01:07:31;10.63;;;9.63;;
39448;SDS011;25151;45.566;9.382;2024-01-27T01:09:58;11.27;;;9.65;;
39448;SDS011;25151;45.566;9.382;2024-01-27T01:12:25;11.23;;;10.05;;
39448;SDS011;25151;45.566;9.382;2024-01-27T01:14:52;11.05;;;9.95;;
39448;SDS011;25151;45.566;9.382;2024-01-27T01:17:19;11.27;;;10.07;;
39448;SDS011;25151;45.566;9.382;2024-01-27T01:19:47;11.30;;;10.18;;
39448;SDS011;25151;45.566;9.382;2024-01-27T01:22:14;11.48;;;10.30;;
39448;SDS011;25151;45.566;9.382;2024-01-27T01:24:41;11.75;;;10.55;;
39448;SDS011;25151;45.566;9.382;2024-01-27T01:27:09;13.38;;;10.82;;
39448;SDS011;25151;45.566;9.382;2024-01-27T01:29:36;11.30;;;10.05;;
39448;SDS011;25151;45.566;9.382;2024-01-27T01:32:03;11.75;;;10.55;;
39448;SDS011;25151;45.566;9.382;2024-01-27T01:34:31;11.93;;;10.65;;
39448;SDS011;25151;45.566;9.382;2024-01-27T01:36:59;11.70;;;10.48;;
39448;SDS011;25151;45.566;9.382;2024-01-27T01:39:27;11.82;;;10.48;;
39448;SDS011;25151;45.566;9.382;2024-01-27T01:41:55;14.32;;;10.63;;
39448;SDS011;25151;45.566;9.382;2024-01-27T01:44:24;11.65;;;10.45;;
39448;SDS011;25151;45.566;9.382;2024-01-27T01:46:55;12.32;;;11.05;;
39448;SDS011;25151;45.566;9.382;2024-01-27T01:49:23;12.35;;;11.15;;
39448;SDS011;25151;45.566;9.382;2024-01-27T01:51:50;12.43;;;11.15;;
39448;SDS011;25151;45.566;9.382;2024-01-27T01:54:18;12.32;;;10.90;;
39448;SDS011;25151;45.566;9.382;2024-01-27T01:56:47;13.07;;;11.05;;
39448;SDS011;25151;45.566;9.382;2024-01-27T01:59:14;14.00;;;10.48;;
39448;SDS011;25151;45.566;9.382;2024-01-27T02:01:41;11.52;;;10.32;;
39448;SDS011;25151;45.566;9.382;2024-01-27T02:04:09;12.60;;;10.85;;
39448;SDS011;25151;45.566;9.382;2024-01-27T02:06:37;13.27;;;11.23;;
39448;SDS011;25151;45.566;9.382;2024-01-27T02:09:05;11.70;;;10.60;;
39448;SDS011;25151;45.566;9.382;2024-01-27T02:11:32;12.05;;;10.85;;
39448;SDS011;25151;45.566;9.382;2024-01-27T02:14:00;12.75;;;10.65;;
39448;SDS011;25151;45.566;9.382;2024-01-27T02:16:27;12.10;;;10.90;;
39448;SDS011;25151;45.566;9.382;2024-01-27T02:18:55;12.23;;;11.00;;
39448;SDS011;25151;45.566;9.382;2024-01-27T02:21:22;13.27;;;11.88;;
39448;SDS011;25151;45.566;9.382;2024-01-27T02:23:50;12.23;;;10.73;;
39448;SDS011;25151;45.566;9.382;2024-01-27T02:26:17;12.65;;;11.43;;
39448;SDS011;25151;45.566;9.382;2024-01-27T02:28:44;12.52;;;11.02;;
39448;SDS011;25151;45.566;9.382;2024-01-27T02:31:12;12.73;;;11.43;;
39448;SDS011;25151;45.566;9.382;2024-01-27T02:33:39;12.68;;;11.48;;
39448;SDS011;25151;45.566;9.382;2024-01-27T02:36:06;12.10;;;10.90;;
39448;SDS011;25151;45.566;9.382;2024-01-27T02:38:34;13.38;;;12.07;;
39448;SDS011;25151;45.566;9.382;2024-01-27T02:41:01;14.15;;;11.55;;
39448;SDS011;25151;45.566;9.382;2024-01-27T02:43:29;14.60;;;11.88;;
39448;SDS011;25151;45.566;9.382;2024-01-27T02:45:56;12.32;;;11.13;;
39448;SDS011;25151;45.566;9.382;2024-01-27T02:48:24;13.45;;;12.05;;
39448;SDS011;25151;45.566;9.382;2024-01-27T02:50:51;13.32;;;11.93;;
39448;SDS011;25151;45.566;9.382;2024-01-27T02:53:19;14.25;;;12.80;;
39448;SDS011;25151;45.566;9.382;2024-01-27T02:55:46;11.85;;;10.65;;
39448;SDS011;25151;45.566;9.382;2024-01-27T02:58:13;13.98;;;12.55;;
39448;SDS011;25151;45.566;9.382;2024-01-27T03:00:40;14.35;;;12.10;;
39448;SDS011;25151;45.566;9.382;2024-01-27T03:03:08;13.52;;;11.77;;
39448;SDS011;25151;45.566;9.382;2024-01-27T03:05:35;12.75;;;11.10;;
39448;SDS011;25151;45.566;9.382;2024-01-27T03:08:02;14.35;;;12.20;;
39448;SDS011;25151;45.566;9.382;2024-01-27T03:10:29;13.50;;;12.10;;
39448;SDS011;25151;45.566;9.382;2024-01-27T03:12:57;13.23;;;11.93;;
39448;SDS011;25151;45.566;9.382;2024-01-27T03:15:24;13.35;;;11.95;;
39448;SDS011;25151;45.566;9.382;2024-01-27T03:17:52;13.05;;;11.75;;
39448;SDS011;25151;45.566;9.382;2024-01-27T03:20:19;13.70;;;12.20;;
39448;SDS011;25151;45.566;9.382;2024-01-27T03:22:47;13.35;;;11.95;;
39448;SDS011;25151;45.566;9.382;2024-01-27T03:25:14;13.25;;;11.85;;
39448;SDS011;25151;45.566;9.382;2024-01-27T03:27:41;15.50;;;13.15;;
39448;SDS011;25151;45.566;9.382;2024-01-27T03:30:09;13.98;;;12.48;;
39448;SDS011;25151;45.566;9.382;2024-01-27T03:32:37;14.32;;;12.52;;
39448;SDS011;25151;45.566;9.382;2024-01-27T03:35:05;14.68;;;13.18;;
39448;SDS011;25151;45.566;9.382;2024-01-27T03:37:32;13.43;;;12.13;;
39448;SDS011;25151;45.566;9.382;2024-01-27T03:40:00;13.15;;;11.82;;
39448;SDS011;25151;45.566;9.382;2024-01-27T03:42:27;14.23;;;12.82;;
39448;SDS011;25151;45.566;9.382;2024-01-27T03:44:55;14.05;;;12.55;;
39448;SDS011;25151;45.566;9.382;2024-01-27T03:47:23;13.15;;;11.77;;
39448;SDS011;25151;45.566;9.382;2024-01-27T03:49:50;13.80;;;12.40;;
39448;SDS011;25151;45.566;9.382;2024-01-27T03:52:17;14.30;;;12.88;;
39448;SDS011;25151;45.566;9.382;2024-01-27T03:54:44;14.35;;;12.85;;
39448;SDS011;25151;45.566;9.382;2024-01-27T03:57:11;14.45;;;12.93;;
39448;SDS011;25151;45.566;9.382;2024-01-27T03:59:39;13.77;;;12.38;;
39448;SDS011;25151;45.566;9.382;2024-01-27T04:02:06;13.93;;;12.52;;
39448;SDS011;25151;45.566;9.382;2024-01-27T04:04:34;13.88;;;12.48;;
39448;SDS011;25151;45.566;9.382;2024-01-27T04:07:01;13.77;;;12.32;;
39448;SDS011;25151;45.566;9.382;2024-01-27T04:09:28;13.77;;;12.38;;
39448;SDS011;25151;45.566;9.382;2024-01-27T04:11:55;14.88;;;12.75;;
39448;SDS011;25151;45.566;9.382;2024-01-27T04:14:23;13.23;;;11.80;;
39448;SDS011;25151;45.566;9.382;2024-01-27T04:16:50;13.88;;;12.48;;
39448;SDS011;25151;45.566;9.382;2024-01-27T04:19:17;13.73;;;12.30;;
39448;SDS011;25151;45.566;9.382;2024-01-27T04:21:44;14.63;;;13.13;;
39448;SDS011;25151;45.566;9.382;2024-01-27T04:24:11;14.60;;;13.15;;
39448;SDS011;25151;45.566;9.382;2024-01-27T04:26:38;13.82;;;12.30;;
39448;SDS011;25151;45.566;9.382;2024-01-27T04:29:05;15.13;;;13.63;;
39448;SDS011;25151;45.566;9.382;2024-01-27T04:31:33;13.43;;;12.13;;
39448;SDS011;25151;45.566;9.382;2024-01-27T04:34:05;15.13;;;13.57;;
39448;SDS011;25151;45.566;9.382;2024-01-27T04:36:32;13.25;;;11.85;;
39448;SDS011;25151;45.566;9.382;2024-01-27T04:39:00;15.10;;;13.52;;
39448;SDS011;25151;45.566;9.382;2024-01-27T04:41:27;14.27;;;12.77;;
39448;SDS011;25151;45.566;9.382;2024-01-27T04:43:54;13.77;;;12.38;;
39448;SDS011;25151;45.566;9.382;2024-01-27T04:46:23;14.25;;;12.80;;
39448;SDS011;25151;45.566;9.382;2024-01-27T04:48:50;14.23;;;12.82;;
39448;SDS011;25151;45.566;9.382;2024-01-27T04:51:17;14.65;;;13.02;;
39448;SDS011;25151;45.566;9.382;2024-01-27T04:53:44;14.48;;;12.95;;
39448;SDS011;25151;45.566;9.382;2024-01-27T04:56:11;14.73;;;13.23;;
39448;SDS011;25151;45.566;9.382;2024-01-27T04:58:39;14.15;;;12.65;;
39448;SDS011;25151;45.566;9.382;2024-01-27T05:01:06;14.10;;;12.60;;
39448;SDS011;25151;45.566;9.382;2024-01-27T05:03:33;13.65;;;12.35;;
39448;SDS011;25151;45.566;9.382;2024-01-27T05:06:02;15.90;;;13.68;;
39448;SDS011;25151;45.566;9.382;2024-01-27T05:08:29;14.82;;;13.32;;
39448;SDS011;25151;45.566;9.382;2024-01-27T05:10:57;16.75;;;12.30;;
39448;SDS011;25151;45.566;9.382;2024-01-27T05:13:25;15.43;;;13.82;;
39448;SDS011;25151;45.566;9.382;2024-01-27T05:15:53;13.55;;;12.15;;
39448;SDS011;25151;45.566;9.382;2024-01-27T05:18:20;14.82;;;13.32;;
39448;SDS011;25151;45.566;9.382;2024-01-27T05:20:47;14.32;;;12.93;;
39448;SDS011;25151;45.566;9.382;2024-01-27T05:23:14;14.23;;;12.73;;
39448;SDS011;25151;45.566;9.382;2024-01-27T05:25:42;14.32;;;12.80;;
39448;SDS011;25151;45.566;9.382;2024-01-27T05:28:09;13.50;;;12.10;;
39448;SDS011;25151;45.566;9.382;2024-01-27T05:30:36;15.10;;;13.50;;
39448;SDS011;25151;45.566;9.382;2024-01-27T05:33:03;15.40;;;13.80;;
39448;SDS011;25151;45.566;9.382;2024-01-27T05:35:31;14.20;;;12.80;;
39448;SDS011;25151;45.566;9.382;2024-01-27T05:37:58;14.68;;;13.18;;
39448;SDS011;25151;45.566;9.382;2024-01-27T05:40:25;14.95;;;13.13;;
39448;SDS011;25151;45.566;9.382;2024-01-27T05:42:52;14.07;;;12.57;;
39448;SDS011;25151;45.566;9.382;2024-01-27T05:45:20;14.10;;;12.35;;
39448;SDS011;25151;45.566;9.382;2024-01-27T05:47:48;13.80;;;12.35;;
39448;SDS011;25151;45.566;9.382;2024-01-27T05:50:15;15.07;;;12.60;;
39448;SDS011;25151;45.566;9.382;2024-01-27T05:52:42;14.57;;;13.07;;
39448;SDS011;25151;45.566;9.382;2024-01-27T05:55:10;14.07;;;12.55;;
39448;SDS011;25151;45.566;9.382;2024-01-27T05:57:38;14.65;;;13.15;;
39448;SDS011;25151;45.566;9.382;2024-01-27T06:00:05;13.73;;;12.43;;
39448;SDS011;25151;45.566;9.382;2024-01-27T06:02:34;14.52;;;12.88;;
39448;SDS011;25151;45.566;9.382;2024-01-27T06:05:04;13.30;;;11.90;;
39448;SDS011;25151;45.566;9.382;2024-01-27T06:07:31;14.45;;;13.05;;
39448;SDS011;25151;45.566;9.382;2024-01-27T06:09:58;14.48;;;12.98;;
39448;SDS011;25151;45.566;9.382;2024-01-27T06:12:26;13.38;;;12.02;;
39448;SDS011;25151;45.566;9.382;2024-01-27T06:14:53;14.55;;;13.05;;
39448;SDS011;25151;45.566;9.382;2024-01-27T06:17:22;14.50;;;13.10;;
39448;SDS011;25151;45.566;9.382;2024-01-27T06:19:50;13.50;;;12.10;;
39448;SDS011;25151;45.566;9.382;2024-01-27T06:22:17;14.98;;;13.48;;
39448;SDS011;25151;45.566;9.382;2024-01-27T06:24:44;14.77;;;13.13;;
39448;SDS011;25151;45.566;9.382;2024-01-27T06:27:11;14.25;;;12.13;;
39448;SDS011;25151;45.566;9.382;2024-01-27T06:29:38;15.15;;;13.55;;
39448;SDS011;25151;45.566;9.382;2024-01-27T06:32:05;14.30;;;12.82;;
39448;SDS011;25151;45.566;9.382;2024-01-27T06:34:32;14.95;;;13.35;;
39448;SDS011;25151;45.566;9.382;2024-01-27T06:37:00;14.00;;;12.40;;
39448;SDS011;25151;45.566;9.382;2024-01-27T06:39:27;15.57;;;13.77;;
39448;SDS011;25151;45.566;9.382;2024-01-27T06:41:54;18.20;;;13.55;;
39448;SDS011;25151;45.566;9.382;2024-01-27T06:44:22;15.93;;;14.07;;
39448;SDS011;25151;45.566;9.382;2024-01-27T06:46:49;14.57;;;13.07;;
39448;SDS011;25151;45.566;9.382;2024-01-27T06:49:16;14.63;;;13.02;;
39448;SDS011;25151;45.566;9.382;2024-01-27T06:51:43;13.93;;;12.25;;
39448;SDS011;25151;45.566;9.382;2024-01-27T06:54:10;14.40;;;12.93;;
39448;SDS011;25151;45.566;9.382;2024-01-27T06:56:37;14.73;;;12.57;;
39448;SDS011;25151;45.566;9.382;2024-01-27T06:59:04;14.63;;;13.05;;
39448;SDS011;25151;45.566;9.382;2024-01-27T07:01:31;15.02;;;13.02;;
39448;SDS011;25151;45.566;9.382;2024-01-27T07:03:59;14.52;;;13.05;;
39448;SDS011;25151;45.566;9.382;2024-01-27T07:06:26;15.45;;;13.85;;
39448;SDS011;25151;45.566;9.382;2024-01-27T07:08:53;15.27;;;13.68;;
39448;SDS011;25151;45.566;9.382;2024-01-27T07:11:20;14.57;;;13.10;;
39448;SDS011;25151;45.566;9.382;2024-01-27T07:13:47;14.88;;;13.38;;
39448;SDS011;25151;45.566;9.382;2024-01-27T07:16:14;13.20;;;11.90;;
39448;SDS011;25151;45.566;9.382;2024-01-27T07:18:41;14.73;;;13.23;;
39448;SDS011;25151;45.566;9.382;2024-01-27T07:21:08;14.00;;;12.60;;
39448;SDS011;25151;45.566;9.382;2024-01-27T07:23:40;14.55;;;13.02;;
39448;SDS011;25151;45.566;9.382;2024-01-27T07:26:07;14.00;;;12.57;;
39448;SDS011;25151;45.566;9.382;2024-01-27T07:28:35;14.45;;;12.90;;
39448;SDS011;25151;45.566;9.382;2024-01-27T07:31:02;14.50;;;12.85;;
39448;SDS011;25151;45.566;9.382;2024-01-27T07:33:34;14.65;;;13.13;;
39448;SDS011;25151;45.566;9.382;2024-01-27T07:36:06;14.27;;;12.77;;
39448;SDS011;25151;45.566;9.382;2024-01-27T07:38:33;13.85;;;12.45;;
39448;SDS011;25151;45.566;9.382;2024-01-27T07:41:03;13.85;;;12.45;;
39448;SDS011;25151;45.566;9.382;2024-01-27T07:43:36;15.52;;;13.00;;
39448;SDS011;25151;45.566;9.382;2024-01-27T07:46:03;14.02;;;12.55;;
39448;SDS011;25151;45.566;9.382;2024-01-27T07:48:32;13.90;;;12.38;;
39448;SDS011;25151;45.566;9.382;2024-01-27T07:51:00;14.05;;;12.55;;
39448;SDS011;25151;45.566;9.382;2024-01-27T07:53:32;15.25;;;12.43;;
39448;SDS011;25151;45.566;9.382;2024-01-27T07:55:59;12.65;;;11.27;;
39448;SDS011;25151;45.566;9.382;2024-01-27T07:58:35;14.60;;;12.98;;
39448;SDS011;25151;45.566;9.382;2024-01-27T08:01:00;14.15;;;12.75;;
39448;SDS011;25151;45.566;9.382;2024-01-27T08:03:29;14.57;;;12.93;;
39448;SDS011;25151;45.566;9.382;2024-01-27T08:06:13;14.77;;;12.53;;
39448;SDS011;25151;45.566;9.382;2024-01-27T08:08:47;14.93;;;13.32;;
39448;SDS011;25151;45.566;9.382;2024-01-27T08:11:14;15.38;;;13.15;;
39448;SDS011;25151;45.566;9.382;2024-01-27T08:13:46;16.52;;;13.88;;
39448;SDS011;25151;45.566;9.382;2024-01-27T08:16:12;20.95;;;14.45;;
39448;SDS011;25151;45.566;9.382;2024-01-27T08:18:39;18.92;;;14.13;;
39448;SDS011;25151;45.566;9.382;2024-01-27T08:21:09;20.88;;;13.73;;
39448;SDS011;25151;45.566;9.382;2024-01-27T08:23:39;21.05;;;14.13;;
39448;SDS011;25151;45.566;9.382;2024-01-27T08:26:06;15.77;;;13.98;;
39448;SDS011;25151;45.566;9.382;2024-01-27T08:28:32;17.73;;;13.57;;
39448;SDS011;25151;45.566;9.382;2024-01-27T08:30:58;15.68;;;12.98;;
39448;SDS011;25151;45.566;9.382;2024-01-27T08:33:25;17.67;;;13.23;;
39448;SDS011;25151;45.566;9.382;2024-01-27T08:35:50;19.17;;;14.60;;
39448;SDS011;25151;45.566;9.382;2024-01-27T08:38:16;18.15;;;12.95;;
39448;SDS011;25151;45.566;9.382;2024-01-27T08:40:43;18.50;;;13.63;;
39448;SDS011;25151;45.566;9.382;2024-01-27T08:43:08;14.93;;;13.27;;
39448;SDS011;25151;45.566;9.382;2024-01-27T08:45:35;17.38;;;13.32;;
39448;SDS011;25151;45.566;9.382;2024-01-27T08:48:05;19.20;;;12.90;;
39448;SDS011;25151;45.566;9.382;2024-01-27T08:50:32;15.75;;;12.52;;
39448;SDS011;25151;45.566;9.382;2024-01-27T08:52:59;16.38;;;13.55;;
39448;SDS011;25151;45.566;9.382;2024-01-27T08:55:29;16.30;;;12.95;;
39448;SDS011;25151;45.566;9.382;2024-01-27T08:57:57;18.08;;;13.43;;
39448;SDS011;25151;45.566;9.382;2024-01-27T09:00:23;17.42;;;11.85;;
39448;SDS011;25151;45.566;9.382;2024-01-27T09:02:51;16.77;;;13.07;;
39448;SDS011;25151;45.566;9.382;2024-01-27T09:05:18;14.95;;;12.13;;
39448;SDS011;25151;45.566;9.382;2024-01-27T09:07:45;16.65;;;11.85;;
39448;SDS011;25151;45.566;9.382;2024-01-27T09:10:22;16.05;;;12.55;;
39448;SDS011;25151;45.566;9.382;2024-01-27T09:12:56;17.45;;;13.45;;
39448;SDS011;25151;45.566;9.382;2024-01-27T09:15:23;14.55;;;12.60;;
39448;SDS011;25151;45.566;9.382;2024-01-27T09:17:52;16.33;;;12.02;;
39448;SDS011;25151;45.566;9.382;2024-01-27T09:20:19;16.08;;;12.70;;
39448;SDS011;25151;45.566;9.382;2024-01-27T09:22:47;14.27;;;12.73;;
39448;SDS011;25151;45.566;9.382;2024-01-27T09:25:17;14.93;;;12.50;;
39448;SDS011;25151;45.566;9.382;2024-01-27T09:27:53;13.93;;;12.15;;
39448;SDS011;25151;45.566;9.382;2024-01-27T09:30:19;14.43;;;11.80;;
39448;SDS011;25151;45.566;9.382;2024-01-27T09:32:46;16.20;;;12.10;;
39448;SDS011;25151;45.566;9.382;2024-01-27T09:35:21;13.25;;;11.80;;
39448;SDS011;25151;45.566;9.382;2024-01-27T09:37:47;15.93;;;12.13;;
39448;SDS011;25151;45.566;9.382;2024-01-27T09:40:14;14.77;;;11.93;;
39448;SDS011;25151;45.566;9.382;2024-01-27T09:42:52;14.43;;;11.70;;
39448;SDS011;25151;45.566;9.382;2024-01-27T09:45:22;16.45;;;11.70;;
39448;SDS011;25151;45.566;9.382;2024-01-27T09:47:49;14.30;;;12.43;;
39448;SDS011;25151;45.566;9.382;2024-01-27T09:50:17;15.95;;;11.85;;
39448;SDS011;25151;45.566;9.382;2024-01-27T09:52:46;15.25;;;12.77;;
39448;SDS011;25151;45.566;9.382;2024-01-27T09:55:16;15.43;;;12.45;;
39448;SDS011;25151;45.566;9.382;2024-01-27T10:00:20;14.38;;;11.98;;
39448;SDS011;25151;45.566;9.382;2024-01-27T10:03:04;14.80;;;11.57;;
39448;SDS011;25151;45.566;9.382;2024-01-27T10:08:08;18.55;;;12.75;;
39448;SDS011;25151;45.566;9.382;2024-01-27T10:10:35;16.73;;;12.25;;
39448;SDS011;25151;45.566;9.382;2024-01-27T10:13:02;15.90;;;12.20;;
39448;SDS011;25151;45.566;9.382;2024-01-27T10:15:29;15.52;;;12.43;;
39448;SDS011;25151;45.566;9.382;2024-01-27T10:18:06;14.25;;;11.70;;
39448;SDS011;25151;45.566;9.382;2024-01-27T10:20:33;15.57;;;12.85;;
39448;SDS011;25151;45.566;9.382;2024-01-27T10:23:09;17.13;;;12.25;;
39448;SDS011;25151;45.566;9.382;2024-01-27T10:25:42;15.82;;;12.27;;
39448;SDS011;25151;45.566;9.382;2024-01-27T10:28:09;13.40;;;11.60;;
39448;SDS011;25151;45.566;9.382;2024-01-27T10:30:36;13.63;;;11.27;;
39448;SDS011;25151;45.566;9.382;2024-01-27T10:33:03;14.00;;;11.93;;
39448;SDS011;25151;45.566;9.382;2024-01-27T10:35:30;14.75;;;10.65;;
39448;SDS011;25151;45.566;9.382;2024-01-27T10:37:57;13.68;;;11.77;;
39448;SDS011;25151;45.566;9.382;2024-01-27T10:40:36;13.98;;;11.55;;
39448;SDS011;25151;45.566;9.382;2024-01-27T10:43:06;12.73;;;11.43;;
39448;SDS011;25151;45.566;9.382;2024-01-27T10:45:36;13.52;;;11.23;;
39448;SDS011;25151;45.566;9.382;2024-01-27T10:48:15;12.73;;;11.18;;
39448;SDS011;25151;45.566;9.382;2024-01-27T10:50:49;16.08;;;11.52;;
39448;SDS011;25151;45.566;9.382;2024-01-27T10:53:24;13.55;;;11.70;;
39448;SDS011;25151;45.566;9.382;2024-01-27T10:55:57;14.85;;;11.63;;
39448;SDS011;25151;45.566;9.382;2024-01-27T10:58:30;14.88;;;12.07;;
39448;SDS011;25151;45.566;9.382;2024-01-27T11:00:59;13.35;;;10.50;;
39448;SDS011;25151;45.566;9.382;2024-01-27T11:03:27;13.20;;;11.52;;
39448;SDS011;25151;45.566;9.382;2024-01-27T11:05:58;12.88;;;10.57;;
39448;SDS011;25151;45.566;9.382;2024-01-27T11:08:25;14.10;;;11.98;;
39448;SDS011;25151;45.566;9.382;2024-01-27T11:10:54;14.75;;;11.32;;
39448;SDS011;25151;45.566;9.382;2024-01-27T11:13:21;12.60;;;11.27;;
39448;SDS011;25151;45.566;9.382;2024-01-27T11:15:52;13.85;;;11.57;;
39448;SDS011;25151;45.566;9.382;2024-01-27T11:18:19;14.75;;;11.88;;
39448;SDS011;25151;45.566;9.382;2024-01-27T11:20:46;15.57;;;11.70;;
39448;SDS011;25151;45.566;9.382;2024-01-27T11:23:13;13.20;;;11.02;;
39448;SDS011;25151;45.566;9.382;2024-01-27T11:26:06;13.63;;;10.73;;
39448;SDS011;25151;45.566;9.382;2024-01-27T11:28:37;14.85;;;11.95;;
39448;SDS011;25151;45.566;9.382;2024-01-27T11:31:06;13.50;;;11.40;;
39448;SDS011;25151;45.566;9.382;2024-01-27T11:33:33;13.75;;;12.10;;
39448;SDS011;25151;45.566;9.382;2024-01-27T11:36:06;13.10;;;11.15;;
39448;SDS011;25151;45.566;9.382;2024-01-27T11:38:33;13.35;;;10.93;;
39448;SDS011;25151;45.566;9.382;2024-01-27T11:41:01;14.32;;;11.52;;
39448;SDS011;25151;45.566;9.382;2024-01-27T11:43:26;12.70;;;11.07;;
39448;SDS011;25151;45.566;9.382;2024-01-27T11:45:57;13.75;;;10.95;;
39448;SDS011;25151;45.566;9.382;2024-01-27T11:51:07;14.05;;;10.55;;
39448;SDS011;25151;45.566;9.382;2024-01-27T11:53:39;12.57;;;10.55;;
39448;SDS011;25151;45.566;9.382;2024-01-27T11:56:06;12.27;;;10.98;;
39448;SDS011;25151;45.566;9.382;2024-01-27T11:58:33;13.43;;;10.10;;
39448;SDS011;25151;45.566;9.382;2024-01-27T12:01:03;13.13;;;11.68;;
39448;SDS011;25151;45.566;9.382;2024-01-27T12:03:29;11.63;;;10.25;;
39448;SDS011;25151;45.566;9.382;2024-01-27T12:05:56;12.68;;;9.90;;
39448;SDS011;25151;45.566;9.382;2024-01-27T12:08:25;13.98;;;10.35;;
39448;SDS011;25151;45.566;9.382;2024-01-27T12:10:57;11.80;;;10.30;;
39448;SDS011;25151;45.566;9.382;2024-01-27T12:13:23;15.07;;;10.55;;
39448;SDS011;25151;45.566;9.382;2024-01-27T12:15:51;13.48;;;10.50;;
39448;SDS011;25151;45.566;9.382;2024-01-27T12:18:17;14.85;;;9.90;;
39448;SDS011;25151;45.566;9.382;2024-01-27T12:20:44;13.70;;;10.90;;
39448;SDS011;25151;45.566;9.382;2024-01-27T12:23:11;11.98;;;10.63;;
39448;SDS011;25151;45.566;9.382;2024-01-27T12:25:42;12.45;;;10.27;;
39448;SDS011;25151;45.566;9.382;2024-01-27T12:28:17;11.20;;;9.98;;
39448;SDS011;25151;45.566;9.382;2024-01-27T12:30:44;10.75;;;9.38;;
39448;SDS011;25151;45.566;9.382;2024-01-27T12:33:11;11.20;;;9.88;;
39448;SDS011;25151;45.566;9.382;2024-01-27T12:35:38;11.05;;;9.65;;
39448;SDS011;25151;45.566;9.382;2024-01-27T12:38:05;12.65;;;10.23;;
39448;SDS011;25151;45.566;9.382;2024-01-27T12:40:32;11.48;;;9.90;;
39448;SDS011;25151;45.566;9.382;2024-01-27T12:42:58;10.55;;;9.45;;
39448;SDS011;25151;45.566;9.382;2024-01-27T12:45:25;10.95;;;9.10;;
39448;SDS011;25151;45.566;9.382;2024-01-27T12:47:56;11.70;;;9.35;;
39448;SDS011;25151;45.566;9.382;2024-01-27T12:50:24;10.98;;;9.75;;
39448;SDS011;25151;45.566;9.382;2024-01-27T12:52:50;10.63;;;8.90;;
39448;SDS011;25151;45.566;9.382;2024-01-27T12:55:17;13.68;;;10.13;;
39448;SDS011;25151;45.566;9.382;2024-01-27T12:57:47;11.90;;;9.80;;
39448;SDS011;25151;45.566;9.382;2024-01-27T13:00:17;11.80;;;9.98;;
39448;SDS011;25151;45.566;9.382;2024-01-27T13:02:44;12.88;;;10.52;;
39448;SDS011;25151;45.566;9.382;2024-01-27T13:05:17;14.05;;;10.50;;
39448;SDS011;25151;45.566;9.382;2024-01-27T13:10:10;13.15;;;10.65;;
39448;SDS011;25151;45.566;9.382;2024-01-27T13:12:37;14.50;;;10.82;;
39448;SDS011;25151;45.566;9.382;2024-01-27T13:15:04;11.82;;;9.40;;
39448;SDS011;25151;45.566;9.382;2024-01-27T13:17:30;11.35;;;9.68;;
39448;SDS011;25151;45.566;9.382;2024-01-27T13:19:57;12.25;;;10.27;;
39448;SDS011;25151;45.566;9.382;2024-01-27T13:22:24;12.43;;;9.95;;
39448;SDS011;25151;45.566;9.382;2024-01-27T13:24:50;10.70;;;9.32;;
39448;SDS011;25151;45.566;9.382;2024-01-27T13:27:16;11.23;;;9.40;;
39448;SDS011;25151;45.566;9.382;2024-01-27T13:29:45;10.65;;;9.55;;
39448;SDS011;25151;45.566;9.382;2024-01-27T13:32:15;12.57;;;9.88;;
39448;SDS011;25151;45.566;9.382;2024-01-27T13:34:43;11.07;;;9.75;;
39448;SDS011;25151;45.566;9.382;2024-01-27T13:37:12;10.48;;;9.05;;
39448;SDS011;25151;45.566;9.382;2024-01-27T13:39:41;11.07;;;9.43;;
39448;SDS011;25151;45.566;9.382;2024-01-27T13:42:14;10.50;;;9.40;;
39448;SDS011;25151;45.566;9.382;2024-01-27T13:44:42;13.40;;;9.65;;
39448;SDS011;25151;45.566;9.382;2024-01-27T13:47:12;11.27;;;9.70;;
39448;SDS011;25151;45.566;9.382;2024-01-27T13:49:39;11.00;;;9.35;;
39448;SDS011;25151;45.566;9.382;2024-01-27T13:52:06;10.77;;;9.25;;
39448;SDS011;25151;45.566;9.382;2024-01-27T13:54:32;10.32;;;8.75;;
39448;SDS011;25151;45.566;9.382;2024-01-27T13:56:59;10.40;;;9.25;;
39448;SDS011;25151;45.566;9.382;2024-01-27T13:59:27;10.50;;;9.23;;
39448;SDS011;25151;45.566;9.382;2024-01-27T14:01:54;10.18;;;9.13;;
39448;SDS011;25151;45.566;9.382;2024-01-27T14:04:23;10.52;;;8.68;;
39448;SDS011;25151;45.566;9.382;2024-01-27T14:06:52;13.10;;;10.15;;
39448;SDS011;25151;45.566;9.382;2024-01-27T14:09:32;12.75;;;9.70;;
39448;SDS011;25151;45.566;9.382;2024-01-27T14:12:00;12.32;;;9.70;;
39448;SDS011;25151;45.566;9.382;2024-01-27T14:14:26;10.18;;;9.15;;
39448;SDS011;25151;45.566;9.382;2024-01-27T14:16:53;13.32;;;9.57;;
39448;SDS011;25151;45.566;9.382;2024-01-27T14:19:27;16.35;;;8.85;;
39448;SDS011;25151;45.566;9.382;2024-01-27T14:21:53;10.75;;;8.57;;
39448;SDS011;25151;45.566;9.382;2024-01-27T14:24:20;9.43;;;8.43;;
39448;SDS011;25151;45.566;9.382;2024-01-27T14:26:46;9.05;;;8.15;;
39448;SDS011;25151;45.566;9.382;2024-01-27T14:29:12;10.23;;;8.80;;
39448;SDS011;25151;45.566;9.382;2024-01-27T14:31:43;10.15;;;8.55;;
39448;SDS011;25151;45.566;9.382;2024-01-27T14:34:09;9.23;;;8.15;;
39448;SDS011;25151;45.566;9.382;2024-01-27T14:36:36;9.57;;;8.55;;
39448;SDS011;25151;45.566;9.382;2024-01-27T14:39:03;9.52;;;8.50;;